createdAt,value
2022-11-16T00:02:28.672Z,6.97
2022-11-16T00:06:05.372Z,6.92
2022-11-16T00:09:22.658Z,6.93
2022-11-16T00:13:20.054Z,6.92
2022-11-16T00:16:22.741Z,6.98
2022-11-16T00:19:47.914Z,6.91
2022-11-16T00:26:54.257Z,6.92
2022-11-16T00:30:38.161Z,6.90
2022-11-16T00:38:34.201Z,6.98
2022-11-16T00:42:15.156Z,7.05
2022-11-16T00:46:44.928Z,7.13
2022-11-16T00:50:22.603Z,7.03
2022-11-16T00:54:05.852Z,6.94
2022-11-16T01:01:56.175Z,6.96
2022-11-16T01:05:36.680Z,7.09
2022-11-16T01:09:13.063Z,7.05
2022-11-16T01:12:59.240Z,7.02
2022-11-16T01:16:51.089Z,7.07
2022-11-16T01:20:44.092Z,7.07
2022-11-16T01:24:23.528Z,7.06
2022-11-16T01:28:07.598Z,7.13
2022-11-16T01:31:43.870Z,7.01
2022-11-16T01:35:17.632Z,7.03
2022-11-16T01:39:12.442Z,7.06
2022-11-16T01:42:57.868Z,7.12
2022-11-16T01:46:43.818Z,7.08
2022-11-16T01:50:37.708Z,7.10
2022-11-16T01:54:14.855Z,7.06
2022-11-16T01:57:40.485Z,7.04
2022-11-16T02:01:16.952Z,7.10
2022-11-16T02:04:54.743Z,7.13
2022-11-16T02:13:34.787Z,7.08
2022-11-16T02:17:32.016Z,7.01
2022-11-16T02:21:11.153Z,7.11
2022-11-16T02:25:18.818Z,7.09
2022-11-16T02:29:45.459Z,7.12
2022-11-16T02:38:09.462Z,7.16
2022-11-16T02:42:00.028Z,7.10
2022-11-16T02:45:42.230Z,7.07
2022-11-16T02:54:05.108Z,7.13
2022-11-16T03:02:27.294Z,7.17
2022-11-16T03:06:41.654Z,7.15
2022-11-16T03:10:35.851Z,7.11
2022-11-16T03:14:17.398Z,7.23
2022-11-16T03:17:45.412Z,7.12
2022-11-16T03:21:55.866Z,7.17
2022-11-16T03:25:44.263Z,7.14
2022-11-16T03:29:52.164Z,7.16
2022-11-16T03:45:49.545Z,7.14
2022-11-16T03:49:38.292Z,7.14
2022-11-16T03:58:11.428Z,7.12
2022-11-16T04:01:59.268Z,7.19
2022-11-16T04:06:21.840Z,7.21
2022-11-16T04:18:24.634Z,7.17
2022-11-16T04:22:40.366Z,7.15
2022-11-16T04:26:49.129Z,7.22
2022-11-16T04:30:59.706Z,7.13
2022-11-16T04:35:02.696Z,7.17
2022-11-16T04:38:47.746Z,7.20
2022-11-16T04:42:29.431Z,7.24
2022-11-16T04:46:24.463Z,7.30
2022-11-16T04:49:57.707Z,7.24
2022-11-16T04:53:42.086Z,7.20
2022-11-16T04:57:02.474Z,7.14
2022-11-16T05:00:41.417Z,7.21
2022-11-16T05:03:49.962Z,7.22
2022-11-16T05:07:22.001Z,7.24
2022-11-16T05:11:10.065Z,7.23
2022-11-16T05:15:10.387Z,7.31
2022-11-16T05:19:17.443Z,7.25
2022-11-16T05:27:32.641Z,7.22
2022-11-16T05:31:09.033Z,7.20
2022-11-16T05:34:46.960Z,7.13
2022-11-16T05:38:35.828Z,7.17
2022-11-16T05:42:17.339Z,7.15
2022-11-16T05:45:52.524Z,7.26
2022-11-16T05:49:37.774Z,7.31
2022-11-16T05:53:22.637Z,7.24
2022-11-16T05:57:08.071Z,7.25
2022-11-16T06:00:51.655Z,7.19
2022-11-16T06:04:27.860Z,7.14
2022-11-16T06:16:14.334Z,7.20
2022-11-16T06:20:01.291Z,7.24
2022-11-16T06:24:00.528Z,7.19
2022-11-16T06:27:51.146Z,7.21
2022-11-16T06:32:04.061Z,7.22
2022-11-16T06:35:41.403Z,7.23
2022-11-16T06:39:24.945Z,7.35
2022-11-16T06:43:07.838Z,7.38
2022-11-16T06:46:53.057Z,7.33
2022-11-16T06:50:32.663Z,7.38
2022-11-16T06:54:24.334Z,7.27
2022-11-16T07:01:38.662Z,7.35
2022-11-16T07:05:21.411Z,7.43
2022-11-16T07:09:25.311Z,7.44
2022-11-16T07:12:36.329Z,7.38
2022-11-16T07:16:59.341Z,7.41
2022-11-16T07:20:18.971Z,7.50
2022-11-16T07:23:25.375Z,7.48
2022-11-16T07:26:57.329Z,7.51
2022-11-16T07:30:21.240Z,7.56
2022-11-16T07:33:25.971Z,7.43
2022-11-16T07:41:06.234Z,7.57
2022-11-16T07:44:34.019Z,7.55
2022-11-16T07:48:11.408Z,7.54
2022-11-16T07:51:58.896Z,7.61
2022-11-16T07:55:08.642Z,7.52
2022-11-16T07:58:36.314Z,7.51
2022-11-16T08:01:50.231Z,7.63
2022-11-16T08:05:17.685Z,7.61
2022-11-16T08:08:28.469Z,7.73
2022-11-16T08:11:39.178Z,7.70
2022-11-16T08:15:28.659Z,7.65
2022-11-16T08:18:42.941Z,7.69
2022-11-16T08:22:26.135Z,7.76
2022-11-16T08:26:09.794Z,7.81
2022-11-16T08:34:09.532Z,8.00
2022-11-16T08:37:14.506Z,7.83
2022-11-16T08:40:29.410Z,7.95
2022-11-16T08:43:53.647Z,7.90
2022-11-16T08:47:02.019Z,7.94
2022-11-16T08:50:44.124Z,8.05
2022-11-16T08:54:20.179Z,8.12
2022-11-16T08:57:45.626Z,8.09
2022-11-16T09:01:12.727Z,8.10
2022-11-16T09:04:18.743Z,8.00
2022-11-16T09:07:22.319Z,8.04
2022-11-16T09:10:33.225Z,8.13
2022-11-16T09:13:37.499Z,8.23
2022-11-16T09:16:40.791Z,8.19
2022-11-16T09:20:06.576Z,8.32
2022-11-16T09:23:20.938Z,8.34
2022-11-16T09:26:57.674Z,8.35
2022-11-16T09:30:00.220Z,8.36
2022-11-16T09:36:36.868Z,8.48
2022-11-16T09:39:42.491Z,8.51
2022-11-16T09:42:54.028Z,8.44
2022-11-16T09:46:46.003Z,8.62
2022-11-16T09:50:03.633Z,8.50
2022-11-16T09:53:36.043Z,8.51
2022-11-16T09:56:42.319Z,8.52
2022-11-16T09:59:57.171Z,8.59
2022-11-16T10:03:20.682Z,8.58
2022-11-16T10:06:31.195Z,8.53
2022-11-16T10:09:40.708Z,8.73
2022-11-16T10:13:22.026Z,8.78
2022-11-16T10:16:41.446Z,8.75
2022-11-16T10:19:55.104Z,8.76
2022-11-16T10:23:28.982Z,8.62
2022-11-16T10:27:00.491Z,8.61
2022-11-16T10:30:10.625Z,8.76
2022-11-16T10:33:18.993Z,8.75
2022-11-16T10:36:27.538Z,8.82
2022-11-16T10:39:34.850Z,8.71
2022-11-16T10:42:58.186Z,8.79
2022-11-16T10:46:05.545Z,8.74
2022-11-16T10:49:25.245Z,8.76
2022-11-16T10:52:31.599Z,8.62
2022-11-16T10:55:34.738Z,8.69
2022-11-16T10:58:56.470Z,8.69
2022-11-16T11:02:01.418Z,8.83
2022-11-16T11:05:16.209Z,8.85
2022-11-16T11:08:33.691Z,8.75
2022-11-16T11:11:59.602Z,8.78
2022-11-16T11:15:12.645Z,8.92
2022-11-16T11:18:23.383Z,8.88
2022-11-16T11:21:27.954Z,8.91
2022-11-16T11:24:44.423Z,8.88
2022-11-16T11:28:26.854Z,8.82
2022-11-16T11:31:55.092Z,8.86
2022-11-16T11:35:03.110Z,8.78
2022-11-16T11:38:08.351Z,8.71
2022-11-16T11:41:19.443Z,8.81
2022-11-16T11:44:30.987Z,8.81
2022-11-16T11:47:58.461Z,8.76
2022-11-16T11:51:35.939Z,8.70
2022-11-16T11:55:05.962Z,8.71
2022-11-16T11:58:18.843Z,8.71
2022-11-16T12:01:48.573Z,8.73
2022-11-16T12:05:11.633Z,8.74
2022-11-16T12:08:45.987Z,8.75
2022-11-16T12:12:04.839Z,8.83
2022-11-16T12:15:36.412Z,8.85
2022-11-16T12:19:38.425Z,8.87
2022-11-16T12:23:11.309Z,8.91
2022-11-16T12:26:34.875Z,8.92
2022-11-16T12:29:37.734Z,8.93
2022-11-16T12:33:14.724Z,8.80
2022-11-16T12:37:07.744Z,8.75
2022-11-16T12:41:02.183Z,8.79
2022-11-16T12:44:53.085Z,8.82
2022-11-16T12:48:15.867Z,8.86
2022-11-16T12:51:50.529Z,8.85
2022-11-16T12:55:27.097Z,8.83
2022-11-16T12:59:27.847Z,8.80
2022-11-16T13:03:11.346Z,8.81
2022-11-16T13:14:09.913Z,8.61
2022-11-16T13:15:02.167Z,8.65
2022-11-16T13:18:50.352Z,8.64
2022-11-16T13:22:28.175Z,8.60
2022-11-16T13:30:24.787Z,8.66
2022-11-16T13:34:22.972Z,8.58
2022-11-16T13:38:01.914Z,8.58
2022-11-16T13:41:36.773Z,8.58
2022-11-16T13:45:20.311Z,8.63
2022-11-16T13:49:01.996Z,8.64
2022-11-16T14:00:12.652Z,8.57
2022-11-16T14:03:35.522Z,8.61
2022-11-16T14:11:00.553Z,8.57
2022-11-16T14:26:03.015Z,8.50
2022-11-16T14:46:39.879Z,8.46
2022-11-16T14:50:40.935Z,8.39
2022-11-16T15:01:26.690Z,8.39
2022-11-16T15:04:49.728Z,8.35
2022-11-16T15:08:33.978Z,8.36
2022-11-16T15:12:23.520Z,8.36
2022-11-16T15:16:19.965Z,8.31
2022-11-16T15:19:58.853Z,8.27
2022-11-16T15:23:30.603Z,8.27
2022-11-16T15:26:49.200Z,8.27
2022-11-16T15:30:34.381Z,8.28
2022-11-16T15:34:16.630Z,8.34
2022-11-16T15:37:34.913Z,8.29
2022-11-16T15:40:55.417Z,8.29
2022-11-16T15:44:37.253Z,8.19
2022-11-16T15:48:22.504Z,8.22
2022-11-16T15:52:07.031Z,8.22
2022-11-16T15:55:46.936Z,8.26
2022-11-16T15:59:34.427Z,8.21
2022-11-16T16:03:04.572Z,8.16
2022-11-16T16:07:06.859Z,8.21
2022-11-16T16:10:42.087Z,8.22
2022-11-16T16:14:09.559Z,8.20
2022-11-16T16:17:39.172Z,8.17
2022-11-16T16:21:17.399Z,8.12
2022-11-16T16:25:37.054Z,8.13
2022-11-16T16:28:41.820Z,8.15
2022-11-16T16:32:50.359Z,8.17
2022-11-16T16:36:25.410Z,8.18
2022-11-16T16:40:00.784Z,8.14
2022-11-16T16:43:37.087Z,8.08
2022-11-16T16:47:11.625Z,8.09
2022-11-16T16:50:43.593Z,8.14
2022-11-16T16:54:16.484Z,8.09
2022-11-16T16:57:51.153Z,8.19
2022-11-16T17:01:29.006Z,8.15
2022-11-16T17:05:02.610Z,8.11
2022-11-16T17:12:11.557Z,8.16
2022-11-16T17:15:43.495Z,8.14
2022-11-16T17:19:19.318Z,8.10
2022-11-16T17:22:36.034Z,8.15
2022-11-16T17:25:42.523Z,8.09
2022-11-16T17:33:11.461Z,8.06
2022-11-16T17:36:15.369Z,8.06
2022-11-16T17:39:40.003Z,8.09
2022-11-16T17:43:15.875Z,8.07
2022-11-16T17:46:40.904Z,8.09
2022-11-16T17:49:58.691Z,8.12
2022-11-16T17:53:36.821Z,8.11
2022-11-16T17:57:04.940Z,8.09
2022-11-16T18:00:50.090Z,8.10
2022-11-16T18:04:25.976Z,8.14
2022-11-16T18:07:52.927Z,8.16
2022-11-16T18:11:27.537Z,8.11
2022-11-16T18:15:21.419Z,8.11
2022-11-16T18:18:30.708Z,8.03
2022-11-16T18:22:11.637Z,8.08
2022-11-16T18:25:50.696Z,8.10
2022-11-16T18:29:22.274Z,8.05
2022-11-16T18:33:22.779Z,8.08
2022-11-16T18:37:00.119Z,8.11
2022-11-16T18:40:38.475Z,8.04
2022-11-16T18:48:26.586Z,8.05
2022-11-16T18:52:03.642Z,8.01
2022-11-16T18:59:20.018Z,7.99
2022-11-16T19:07:15.805Z,7.97
2022-11-16T19:10:39.479Z,8.03
2022-11-16T19:14:17.226Z,7.98
2022-11-16T19:18:20.484Z,7.92
2022-11-16T19:21:39.411Z,7.91
2022-11-16T19:29:16.770Z,7.95
2022-11-16T19:33:05.278Z,7.89
2022-11-16T19:37:14.821Z,7.85
2022-11-16T19:40:51.373Z,7.89
2022-11-16T19:44:30.223Z,7.87
2022-11-16T19:48:10.504Z,7.94
2022-11-16T19:51:31.474Z,7.94
2022-11-16T19:55:16.235Z,7.91
2022-11-16T19:59:03.263Z,7.93
2022-11-16T20:02:29.907Z,7.96
2022-11-16T20:06:23.592Z,7.92
2022-11-16T20:10:12.714Z,7.94
2022-11-16T20:13:48.800Z,7.93
2022-11-16T20:17:22.786Z,7.90
2022-11-16T20:21:02.737Z,7.92
2022-11-16T20:24:21.078Z,7.93
2022-11-16T20:28:11.279Z,7.92
2022-11-16T20:49:53.450Z,7.94
2022-11-16T20:53:41.139Z,7.89
2022-11-16T20:57:15.914Z,7.84
2022-11-16T21:01:11.335Z,7.84
2022-11-16T21:04:57.525Z,7.78
2022-11-16T21:08:28.013Z,7.77
2022-11-16T21:16:24.455Z,7.79
2022-11-16T21:20:25.861Z,7.80
2022-11-16T21:24:02.034Z,7.81
2022-11-16T21:27:34.658Z,7.86
2022-11-16T21:31:25.868Z,7.84
2022-11-16T21:35:05.919Z,7.85
2022-11-16T21:38:28.016Z,7.83
2022-11-16T21:42:43.371Z,7.83
2022-11-16T21:50:35.270Z,7.90
2022-11-16T21:54:11.812Z,7.87
2022-11-16T21:58:16.367Z,7.89
2022-11-16T22:02:02.593Z,7.84
2022-11-16T22:06:03.385Z,7.86
2022-11-16T22:09:42.570Z,7.83
2022-11-16T22:17:07.489Z,7.87
2022-11-16T22:21:11.855Z,7.83
2022-11-16T22:24:53.344Z,7.82
2022-11-16T22:49:06.047Z,7.74
2022-11-16T23:06:28.912Z,7.75
2022-11-16T23:10:03.498Z,7.71
2022-11-16T23:17:39.798Z,7.72
2022-11-16T23:29:14.936Z,7.66
2022-11-16T23:32:48.287Z,7.65
2022-11-16T23:36:20.324Z,7.62
2022-11-16T23:39:58.874Z,7.61
2022-11-16T23:43:47.417Z,7.65
2022-11-16T23:47:26.561Z,7.66
2022-11-16T23:54:40.254Z,7.60
2022-11-16T23:58:28.952Z,7.60
